Big Bear Station Historical Data
Daily Summary for May 15, 2019 Units:  English    Metric   Both
Next Day »
Daily Weekly Monthly Yearly Custom
  High: Low: Average:
Temperature: 64.2 °F 39.6 °F 51 °F
Dew Point: 40.9 °F 21.8 °F 31.8 °F
Humidity: 81% 24% 50%
Wind Speed: 14.5mph 0mph 2.1mph
Wind Gust: -999mph - -
Wind- - SW
Pressure: 23.51 in 23.37 in -
Precipitation: 0 in    
Historical Graphs
 
 
Tabular Data for May 15, 2019
Time Temperature Dew Point Pressure Wind Wind Speed Wind Gust Humidity Rainfall Rate (Hourly)
00:01 49.6 °F 37.1 °F 23.51 in Calm   -999 mph 62% 0.00 in
00:17 48.9 °F 35.6 °F 23.51 in Calm   -999 mph 60% 0.00 in
00:32 48.2 °F 33.7 °F 23.51 in Calm   -999 mph 57% 0.00 in
00:47 47.5 °F 30.7 °F 23.51 in Calm   -999 mph 52% 0.00 in
01:02 47.5 °F 26.7 °F 23.50 in Calm   -999 mph 44% 0.00 in
01:18 47.7 °F 27.9 °F 23.49 in Calm   -999 mph 46% 0.00 in
01:33 47.3 °F 27.6 °F 23.49 in Calm   -999 mph 46% 0.00 in
01:48 47.1 °F 29.4 °F 23.49 in Calm   -999 mph 50% 0.00 in
02:03 46.8 °F 29.1 °F 23.48 in Calm   -999 mph 50% 0.00 in
02:18 47.5 °F 33.9 °F 23.48 in ENE 2.2 mph -999 mph 59% 0.00 in
02:34 47.8 °F 35.4 °F 23.47 in Calm   -999 mph 62% 0.00 in
02:49 46.6 °F 32.6 °F 23.47 in Calm   -999 mph 58% 0.00 in
03:04 46.6 °F 32.6 °F 23.47 in Calm   -999 mph 58% 0.00 in
03:19 46.6 °F 30.8 °F 23.47 in Calm   -999 mph 54% 0.00 in
03:34 46.4 °F 27.3 °F 23.47 in Calm   -999 mph 47% 0.00 in
03:50 46.4 °F 25.1 °F 23.47 in Calm   -999 mph 43% 0.00 in
04:05 46.4 °F 25.1 °F 23.46 in Calm   -999 mph 43% 0.00 in
04:20 46 °F 25.3 °F 23.46 in Calm   -999 mph 44% 0.00 in
04:35 45.5 °F 26.4 °F 23.45 in Calm   -999 mph 47% 0.00 in
04:50 45.1 °F 27.1 °F 23.45 in Calm   -999 mph 49% 0.00 in
05:06 45.7 °F 29.5 °F 23.46 in Calm   -999 mph 53% 0.00 in
05:21 45.3 °F 32.2 °F 23.46 in Calm   -999 mph 60% 0.00 in
05:36 44.6 °F 32 °F 23.46 in Calm   -999 mph 61% 0.00 in
05:51 44.2 °F 31.6 °F 23.46 in Calm   -999 mph 61% 0.00 in
06:07 44.1 °F 30.7 °F 23.46 in Calm   -999 mph 59% 0.00 in
06:22 43.7 °F 31.5 °F 23.46 in Calm   -999 mph 62% 0.00 in
06:37 43.3 °F 31.5 °F 23.46 in Calm   -999 mph 63% 0.00 in
06:52 43.7 °F 32.3 °F 23.46 in Calm   -999 mph 64% 0.00 in
07:07 44.6 °F 32.8 °F 23.47 in Calm   -999 mph 63% 0.00 in
07:22 45.3 °F 33.4 °F 23.47 in Calm   -999 mph 63% 0.00 in
07:38 47.3 °F 33.7 °F 23.46 in Calm   -999 mph 59% 0.00 in
07:53 48.9 °F 31.6 °F 23.45 in Calm   -999 mph 51% 0.00 in
08:08 50.7 °F 32.2 °F 23.45 in Calm   -999 mph 49% 0.00 in
08:23 51.8 °F 32.7 °F 23.46 in NE 3.2 mph -999 mph 48% 0.00 in
08:39 53.2 °F 31.8 °F 23.45 in Calm   -999 mph 44% 0.00 in
08:54 54.3 °F 32.8 °F 23.46 in NNW 4.7 mph -999 mph 44% 0.00 in
09:09 55 °F 31.7 °F 23.46 in NW 2.2 mph -999 mph 41% 0.00 in
09:24 56.1 °F 32.1 °F 23.45 in Calm   -999 mph 40% 0.00 in
09:39 57.6 °F 24.7 °F 23.45 in NNE 2.7 mph -999 mph 28% 0.00 in
09:55 57.6 °F 24.7 °F 23.46 in WNW 4.7 mph -999 mph 28% 0.00 in
10:10 59 °F 25 °F 23.46 in NW 4.7 mph -999 mph 27% 0.00 in
10:25 60.3 °F 23.3 °F 23.46 in East 1.1 mph -999 mph 24% 0.00 in
10:40 58.5 °F 21.8 °F 23.46 in SSW 4.7 mph -999 mph 24% 0.00 in
10:55 58.1 °F 26.8 °F 23.46 in NW 2.7 mph -999 mph 30% 0.00 in
11:11 57.2 °F 30.5 °F 23.47 in South 1.7 mph -999 mph 36% 0.00 in
11:26 59 °F 32.8 °F 23.47 in NNW 6.3 mph -999 mph 37% 0.00 in
11:41 58.8 °F 26.6 °F 23.47 in NW 1.7 mph -999 mph 29% 0.00 in
11:56 58.3 °F 24.4 °F 23.47 in NE 8.3 mph -999 mph 27% 0.00 in
12:11 60.4 °F 28 °F 23.47 in West 2.2 mph -999 mph 29% 0.00 in
12:27 57.7 °F 27.3 °F 23.47 in SE 2.2 mph -999 mph 31% 0.00 in
12:42 59.4 °F 27.9 °F 23.47 in NNW 14.5 mph -999 mph 30% 0.00 in
12:57 62.4 °F 28.9 °F 23.46 in SSE 3.2 mph -999 mph 28% 0.00 in
13:12 61 °F 26.8 °F 23.47 in South 6.8 mph -999 mph 27% 0.00 in
13:28 64.2 °F 29.5 °F 23.46 in SSW 2.7 mph -999 mph 27% 0.00 in
13:43 61.7 °F 29.9 °F 23.45 in SE 4.2 mph -999 mph 30% 0.00 in
13:59 63.1 °F 35 °F 23.45 in NW 3.7 mph -999 mph 35% 0.00 in
14:14 61.3 °F 36.1 °F 23.45 in SSW 5.3 mph -999 mph 39% 0.00 in
14:29 60.6 °F 32.1 °F 23.45 in South 6.3 mph -999 mph 34% 0.00 in
14:45 61.9 °F 32.5 °F 23.45 in SSE 7.3 mph -999 mph 33% 0.00 in
15:00 60.3 °F 35.2 °F 23.45 in SSE 7.3 mph -999 mph 39% 0.00 in
15:15 59 °F 32.1 °F 23.44 in SSW 5.3 mph -999 mph 36% 0.00 in
15:30 57.7 °F 34.8 °F 23.44 in SSE 1.7 mph -999 mph 42% 0.00 in
15:45 57.9 °F 35.5 °F 23.44 in SSW 5.8 mph -999 mph 43% 0.00 in
16:01 56.3 °F 38.9 °F 23.43 in SE 5.3 mph -999 mph 52% 0.00 in
16:16 57.7 °F 40.2 °F 23.42 in WNW 1.1 mph -999 mph 52% 0.00 in
16:32 56.8 °F 40.3 °F 23.42 in South 5.8 mph -999 mph 54% 0.00 in
16:47 58.8 °F 40.2 °F 23.42 in NNW 2.2 mph -999 mph 50% 0.00 in
17:02 57.2 °F 40.7 °F 23.42 in South 6.3 mph -999 mph 54% 0.00 in
17:18 56.7 °F 40.2 °F 23.42 in WNW 1.7 mph -999 mph 54% 0.00 in
17:33 55.6 °F 39.7 °F 23.42 in North 2.7 mph -999 mph 55% 0.00 in
17:49 54 °F 40.9 °F 23.42 in WNW 3.2 mph -999 mph 61% 0.00 in
18:04 54.5 °F 38.7 °F 23.40 in Calm   -999 mph 55% 0.00 in
18:19 53.1 °F 36.4 °F 23.40 in SW 2.7 mph -999 mph 53% 0.00 in
18:34 52.5 °F 35.4 °F 23.40 in SE 2.7 mph -999 mph 52% 0.00 in
18:49 51.8 °F 32.7 °F 23.39 in SSW 2.7 mph -999 mph 48% 0.00 in
19:05 52.9 °F 32.1 °F 23.39 in Calm   -999 mph 45% 0.00 in
19:20 50.7 °F 33.2 °F 23.39 in South 3.7 mph -999 mph 51% 0.00 in
19:35 48.6 °F 38.1 °F 23.39 in WNW 2.2 mph -999 mph 67% 0.00 in
19:51 47.7 °F 33.6 °F 23.38 in West 3.7 mph -999 mph 58% 0.00 in
20:06 47.3 °F 29.1 °F 23.37 in South 2.7 mph -999 mph 49% 0.00 in
20:21 47.1 °F 29.4 °F 23.38 in South 4.7 mph -999 mph 50% 0.00 in
20:36 46 °F 33.7 °F 23.38 in NW 3.2 mph -999 mph 62% 0.00 in
20:51 43.7 °F 37.9 °F 23.39 in SW 4.2 mph -999 mph 80% 0.00 in
21:07 43.3 °F 36.2 °F 23.41 in Calm   -999 mph 76% 0.00 in
21:22 43.2 °F 35.8 °F 23.41 in NNW 2.7 mph -999 mph 75% 0.00 in
21:37 42.4 °F 36.7 °F 23.41 in NW 2.2 mph -999 mph 80% 0.00 in
21:53 41.9 °F 36.5 °F 23.41 in Calm   -999 mph 81% 0.00 in
22:08 41.2 °F 34.2 °F 23.41 in Calm   -999 mph 76% 0.00 in
22:23 41.2 °F 31.4 °F 23.41 in Calm   -999 mph 68% 0.00 in
22:38 41.2 °F 31.1 °F 23.41 in Calm   -999 mph 67% 0.00 in
22:53 41 °F 30.9 °F 23.41 in Calm   -999 mph 67% 0.00 in
23:09 40.5 °F 30 °F 23.41 in Calm   -999 mph 66% 0.00 in
23:24 40.3 °F 28.3 °F 23.40 in Calm   -999 mph 62% 0.00 in
23:39 39.9 °F 27.9 °F 23.40 in Calm   -999 mph 62% 0.00 in
23:54 39.6 °F 27.3 °F 23.40 in Calm   -999 mph 61% 0.00 in
Big Bear CA Weather